createdAt,value
2022-12-17T00:00:29.249Z,64.96
2022-12-17T00:03:19.683Z,65.08
2022-12-17T00:06:10.643Z,65.18
2022-12-17T00:08:59.171Z,64.84
2022-12-17T00:11:47.662Z,64.86
2022-12-17T00:14:36.388Z,65.24
2022-12-17T00:17:25.045Z,64.79
2022-12-17T00:20:13.687Z,64.97
2022-12-17T00:23:15.957Z,64.58
2022-12-17T00:26:12.472Z,64.64
2022-12-17T00:29:01.379Z,64.17
2022-12-17T00:31:50.055Z,64.51
2022-12-17T00:34:38.649Z,63.89
2022-12-17T00:37:27.374Z,64.61
2022-12-17T00:40:16.449Z,64.56
2022-12-17T00:43:05.103Z,64.14
2022-12-17T00:45:53.884Z,64.09
2022-12-17T00:48:42.581Z,63.93
2022-12-17T00:51:31.324Z,63.73
2022-12-17T00:54:19.971Z,63.67
2022-12-17T00:57:09.599Z,63.73
2022-12-17T00:59:58.885Z,63.87
2022-12-17T01:02:48.245Z,64.42
2022-12-17T01:05:37.157Z,64.18
2022-12-17T01:08:31.298Z,64.31
2022-12-17T01:11:26.292Z,64.32
2022-12-17T01:14:15.113Z,64.80
2022-12-17T01:17:04.910Z,64.34
2022-12-17T01:19:53.485Z,64.72
2022-12-17T01:22:45.244Z,64.47
2022-12-17T01:25:33.854Z,64.48
2022-12-17T01:28:22.584Z,64.76
2022-12-17T01:31:11.177Z,64.42
2022-12-17T01:34:00.357Z,64.12
2022-12-17T01:36:50.242Z,64.33
2022-12-17T01:39:38.970Z,64.86
2022-12-17T01:42:33.655Z,64.68
2022-12-17T01:45:23.443Z,64.95
2022-12-17T01:48:17.726Z,64.80
2022-12-17T01:51:13.359Z,64.25
2022-12-17T01:54:09.886Z,64.11
2022-12-17T01:57:01.611Z,64.76
2022-12-17T02:00:20.165Z,64.50
2022-12-17T02:03:08.800Z,64.49
2022-12-17T02:06:20.209Z,64.44
2022-12-17T02:09:32.289Z,64.19
2022-12-17T02:12:27.074Z,64.69
2022-12-17T02:15:38.043Z,64.34
2022-12-17T02:18:36.799Z,64.25
2022-12-17T02:21:26.419Z,64.36
2022-12-17T02:25:00.516Z,63.58
2022-12-17T02:27:50.400Z,64.13
2022-12-17T02:30:39.028Z,64.38
2022-12-17T02:33:28.352Z,64.31
2022-12-17T02:36:22.966Z,63.97
2022-12-17T02:39:11.577Z,64.31
2022-12-17T02:42:06.132Z,64.01
2022-12-17T02:44:56.226Z,64.15
2022-12-17T02:47:45.046Z,64.21
2022-12-17T02:50:33.691Z,64.20
2022-12-17T02:53:22.816Z,64.06
2022-12-17T02:56:11.471Z,63.95
2022-12-17T02:59:00.161Z,64.05
2022-12-17T03:01:48.890Z,64.32
2022-12-17T03:04:37.954Z,64.30
2022-12-17T03:07:26.669Z,64.36
2022-12-17T03:10:15.466Z,64.44
2022-12-17T03:13:04.124Z,64.47
2022-12-17T03:15:52.841Z,64.10
2022-12-17T03:18:41.529Z,64.10
2022-12-17T03:21:30.207Z,64.36
2022-12-17T03:24:18.834Z,64.72
2022-12-17T03:27:07.354Z,64.48
2022-12-17T03:29:56.129Z,64.64
2022-12-17T03:32:44.739Z,64.71
2022-12-17T03:35:33.243Z,64.49
2022-12-17T03:38:26.940Z,64.78
2022-12-17T03:41:16.229Z,64.84
2022-12-17T03:44:04.824Z,64.64
2022-12-17T03:46:53.393Z,64.76
2022-12-17T03:49:42.031Z,65.29
2022-12-17T03:52:30.731Z,64.98
2022-12-17T03:55:19.545Z,64.83
2022-12-17T03:58:08.538Z,65.09
2022-12-17T04:00:57.118Z,65.15
2022-12-17T04:03:45.777Z,65.10
2022-12-17T04:06:34.817Z,65.05
2022-12-17T04:09:23.562Z,65.33
2022-12-17T04:12:12.069Z,65.10
2022-12-17T04:15:01.100Z,65.21
2022-12-17T04:17:50.060Z,65.10
2022-12-17T04:20:38.656Z,65.05
2022-12-17T04:23:27.468Z,65.22
2022-12-17T04:26:16.059Z,65.38
2022-12-17T04:29:04.466Z,65.21
2022-12-17T04:31:53.011Z,65.37
2022-12-17T04:34:41.527Z,65.23
2022-12-17T04:37:30.066Z,65.64
2022-12-17T04:40:18.665Z,65.40
2022-12-17T04:43:07.234Z,65.53
2022-12-17T04:45:56.644Z,65.51
2022-12-17T04:48:45.617Z,65.84
2022-12-17T04:51:34.284Z,65.55
2022-12-17T04:54:22.921Z,65.76
2022-12-17T04:57:12.058Z,65.59
2022-12-17T05:00:00.885Z,65.59
2022-12-17T05:02:49.876Z,65.27
2022-12-17T05:05:38.780Z,65.54
2022-12-17T05:08:27.650Z,65.77
2022-12-17T05:11:23.933Z,65.91
2022-12-17T05:14:12.452Z,65.77
2022-12-17T05:17:01.001Z,65.93
2022-12-17T05:19:49.489Z,66.09
2022-12-17T05:22:38.197Z,66.05
2022-12-17T05:25:26.904Z,66.15
2022-12-17T05:28:15.467Z,66.22
2022-12-17T05:31:10.698Z,66.02
2022-12-17T05:33:59.348Z,66.32
2022-12-17T05:36:47.687Z,66.56
2022-12-17T05:39:36.484Z,66.23
2022-12-17T05:42:25.226Z,66.21
2022-12-17T05:45:14.025Z,66.45
2022-12-17T05:48:02.938Z,65.99
2022-12-17T05:50:51.629Z,66.40
2022-12-17T05:53:40.422Z,66.30
2022-12-17T05:56:29.019Z,66.52
2022-12-17T05:59:17.804Z,66.44
2022-12-17T06:02:06.310Z,66.77
2022-12-17T06:05:00.377Z,66.54
2022-12-17T06:07:50.629Z,67.02
2022-12-17T06:10:39.154Z,66.69
2022-12-17T06:13:27.887Z,66.94
2022-12-17T06:16:16.554Z,67.21
2022-12-17T06:19:05.385Z,67.50
2022-12-17T06:21:54.335Z,67.19
2022-12-17T06:24:46.136Z,67.52
2022-12-17T06:27:34.956Z,67.46
2022-12-17T06:30:23.939Z,67.20
2022-12-17T06:33:23.290Z,67.39
2022-12-17T06:36:21.281Z,67.32
2022-12-17T06:39:11.002Z,67.25
2022-12-17T06:42:04.206Z,67.29
2022-12-17T06:44:53.583Z,66.78
2022-12-17T06:47:42.165Z,67.65
2022-12-17T06:50:30.749Z,67.48
2022-12-17T06:53:21.744Z,67.37
2022-12-17T06:56:10.897Z,67.90
2022-12-17T06:58:59.513Z,68.04
2022-12-17T07:01:48.701Z,67.86
2022-12-17T07:04:38.608Z,68.09
2022-12-17T07:07:27.086Z,67.86
2022-12-17T07:10:15.635Z,67.86
2022-12-17T07:13:04.380Z,67.88
2022-12-17T07:15:53.181Z,68.22
2022-12-17T07:18:41.922Z,67.99
2022-12-17T07:21:30.384Z,67.77
2022-12-17T07:24:19.198Z,68.01
2022-12-17T07:27:07.652Z,67.80
2022-12-17T07:29:56.255Z,67.73
2022-12-17T07:32:44.781Z,67.87
2022-12-17T07:35:33.412Z,67.64
2022-12-17T07:38:23.957Z,67.76
2022-12-17T07:41:12.854Z,67.81
2022-12-17T07:44:01.533Z,67.90
2022-12-17T07:46:50.296Z,67.96
2022-12-17T07:49:38.852Z,67.95
2022-12-17T07:52:27.461Z,67.58
2022-12-17T07:55:18.392Z,67.60
2022-12-17T07:58:16.228Z,67.71
2022-12-17T08:01:05.715Z,67.78
2022-12-17T08:03:54.745Z,67.34
2022-12-17T08:06:43.448Z,67.64
2022-12-17T08:09:32.035Z,67.55
2022-12-17T08:12:20.750Z,67.91
2022-12-17T08:15:09.258Z,68.06
2022-12-17T08:18:00.670Z,67.45
2022-12-17T08:20:49.408Z,67.78
2022-12-17T08:23:38.718Z,67.90
2022-12-17T08:26:27.607Z,68.13
2022-12-17T08:29:16.441Z,68.15
2022-12-17T08:32:04.948Z,68.13
2022-12-17T08:34:53.597Z,68.09
2022-12-17T08:37:42.479Z,68.17
2022-12-17T08:40:31.119Z,68.48
2022-12-17T08:43:19.893Z,68.46
2022-12-17T08:46:10.298Z,68.41
2022-12-17T08:48:59.167Z,68.43
2022-12-17T08:51:47.796Z,68.53
2022-12-17T08:54:36.255Z,68.89
2022-12-17T08:57:31.741Z,68.55
2022-12-17T09:00:21.183Z,68.83
2022-12-17T09:03:18.514Z,68.58
2022-12-17T09:06:07.101Z,68.69
2022-12-17T09:08:55.671Z,68.88
2022-12-17T09:11:44.327Z,68.36
2022-12-17T09:14:32.872Z,68.39
2022-12-17T09:17:21.495Z,68.80
2022-12-17T09:20:10.150Z,68.48
2022-12-17T09:22:59.416Z,68.32
2022-12-17T09:25:48.127Z,68.45
2022-12-17T09:28:37.022Z,68.64
2022-12-17T09:31:25.788Z,68.19
2022-12-17T09:34:14.920Z,68.41
2022-12-17T09:37:03.563Z,67.98
2022-12-17T09:39:52.455Z,67.86
2022-12-17T09:43:04.499Z,68.03
2022-12-17T09:46:01.775Z,67.96
2022-12-17T09:49:22.358Z,68.30
2022-12-17T09:52:11.182Z,68.37
2022-12-17T09:55:07.861Z,68.18
2022-12-17T09:57:58.673Z,67.84
2022-12-17T10:00:48.415Z,67.69
2022-12-17T10:03:40.040Z,67.88
2022-12-17T10:06:47.563Z,68.31
2022-12-17T10:09:37.551Z,68.08
2022-12-17T10:12:38.313Z,67.99
2022-12-17T10:15:32.008Z,68.52
2022-12-17T10:18:31.234Z,68.11
2022-12-17T10:21:30.491Z,67.97
2022-12-17T10:24:29.714Z,67.90
2022-12-17T10:27:18.306Z,68.11
2022-12-17T10:30:07.529Z,68.08
2022-12-17T10:32:56.789Z,68.20
2022-12-17T10:35:54.071Z,67.98
2022-12-17T10:38:44.322Z,67.83
2022-12-17T10:41:43.811Z,67.89
2022-12-17T10:44:50.553Z,67.90
2022-12-17T10:47:44.209Z,68.24
2022-12-17T10:50:36.387Z,68.16
2022-12-17T10:53:40.410Z,67.67
2022-12-17T10:56:41.818Z,67.67
2022-12-17T10:59:33.015Z,67.76
2022-12-17T11:02:21.816Z,68.49
2022-12-17T11:05:12.322Z,67.88
2022-12-17T11:08:02.279Z,67.53
2022-12-17T11:10:59.569Z,67.83
2022-12-17T11:13:53.256Z,67.99
2022-12-17T11:16:49.614Z,67.89
2022-12-17T11:19:55.060Z,68.06
2022-12-17T11:23:01.265Z,67.55
2022-12-17T11:25:59.397Z,67.64
2022-12-17T11:28:52.256Z,67.76
2022-12-17T11:32:27.802Z,66.44
2022-12-17T11:35:32.962Z,66.45
2022-12-17T11:39:12.988Z,66.98
2022-12-17T11:42:48.718Z,66.64
2022-12-17T11:46:18.967Z,66.72
2022-12-17T11:49:18.415Z,66.71
2022-12-17T11:52:20.217Z,67.09
2022-12-17T11:55:31.228Z,66.98
2022-12-17T11:58:24.428Z,67.18
2022-12-17T12:01:19.426Z,67.22
2022-12-17T12:04:16.298Z,68.17
2022-12-17T12:07:04.973Z,67.65
2022-12-17T12:09:53.699Z,67.46
2022-12-17T12:13:03.874Z,67.80
2022-12-17T12:16:15.391Z,67.70
2022-12-17T12:19:12.920Z,67.43
2022-12-17T12:22:35.818Z,68.20
2022-12-17T12:26:18.791Z,67.36
2022-12-17T12:29:19.754Z,66.54
2022-12-17T12:32:21.659Z,66.53
2022-12-17T12:35:12.842Z,66.65
2022-12-17T12:38:01.983Z,67.53
2022-12-17T12:40:59.169Z,66.83
2022-12-17T12:43:54.462Z,66.79
2022-12-17T12:47:01.197Z,66.63
2022-12-17T12:50:00.524Z,66.18
2022-12-17T12:52:50.347Z,66.22
2022-12-17T12:55:38.930Z,66.91
2022-12-17T12:59:00.382Z,66.53
2022-12-17T13:01:57.204Z,67.14
2022-12-17T13:05:01.939Z,66.93
2022-12-17T13:07:33.981Z,67.18
2022-12-17T13:10:28.716Z,67.47
2022-12-17T13:13:10.812Z,67.27
2022-12-17T13:15:46.852Z,67.18
2022-12-17T13:18:32.263Z,67.63
2022-12-17T13:21:24.548Z,67.48
2022-12-17T13:23:54.721Z,67.50
2022-12-17T13:26:44.544Z,68.18
2022-12-17T13:29:29.857Z,68.34
2022-12-17T13:32:38.930Z,68.41
2022-12-17T13:35:27.090Z,67.97
2022-12-17T13:38:15.693Z,68.38
2022-12-17T13:41:11.045Z,68.56
2022-12-17T13:43:49.722Z,68.64
2022-12-17T13:46:47.237Z,68.47
2022-12-17T13:49:25.280Z,68.18
2022-12-17T13:52:18.208Z,68.86
2022-12-17T13:54:48.481Z,68.59
2022-12-17T13:57:24.815Z,68.45
2022-12-17T14:00:02.566Z,68.85
2022-12-17T14:02:35.418Z,68.74
2022-12-17T14:05:08.418Z,69.32
2022-12-17T14:07:39.693Z,68.98
2022-12-17T14:10:20.478Z,69.39
2022-12-17T14:12:51.338Z,69.25
2022-12-17T14:15:26.354Z,69.21
2022-12-17T14:17:59.004Z,69.35
2022-12-17T14:20:32.072Z,69.66
2022-12-17T14:23:22.623Z,69.65
2022-12-17T14:25:53.019Z,69.56
2022-12-17T14:28:35.893Z,69.58
2022-12-17T14:31:31.627Z,69.50
2022-12-17T14:34:08.183Z,69.79
2022-12-17T14:36:44.421Z,69.77
2022-12-17T14:39:32.055Z,69.71
2022-12-17T14:42:25.620Z,69.39
2022-12-17T14:45:21.559Z,69.63
2022-12-17T14:47:56.949Z,69.76
2022-12-17T14:50:36.163Z,70.02
2022-12-17T14:53:27.602Z,70.04
2022-12-17T14:55:59.118Z,70.00
2022-12-17T14:58:29.231Z,70.01
2022-12-17T15:01:13.583Z,70.27
2022-12-17T15:03:48.245Z,69.98
2022-12-17T15:06:20.486Z,69.91
2022-12-17T15:08:53.355Z,69.69
2022-12-17T15:11:23.889Z,70.09
2022-12-17T15:13:56.692Z,69.96
2022-12-17T15:16:27.532Z,69.96
2022-12-17T15:18:57.908Z,70.04
2022-12-17T15:21:28.093Z,70.12
2022-12-17T15:23:58.335Z,69.99
2022-12-17T15:26:28.727Z,70.64
2022-12-17T15:28:58.951Z,70.49
2022-12-17T15:31:35.034Z,70.37
2022-12-17T15:34:06.102Z,70.43
2022-12-17T15:36:36.215Z,70.17
2022-12-17T15:39:07.268Z,70.38
2022-12-17T15:41:56.013Z,69.91
2022-12-17T15:44:26.991Z,69.91
2022-12-17T15:46:57.139Z,70.20
2022-12-17T15:49:27.319Z,70.09
2022-12-17T15:51:57.512Z,70.11
2022-12-17T15:54:27.907Z,70.24
2022-12-17T15:56:58.457Z,70.17
2022-12-17T15:59:28.611Z,70.02
2022-12-17T16:01:58.907Z,70.07
2022-12-17T16:04:29.187Z,70.09
2022-12-17T16:06:59.503Z,69.92
2022-12-17T16:09:29.603Z,69.56
2022-12-17T16:11:59.868Z,70.13
2022-12-17T16:14:30.078Z,69.69
2022-12-17T16:17:00.179Z,70.17
2022-12-17T16:19:30.434Z,70.14
2022-12-17T16:22:00.618Z,70.67
2022-12-17T16:24:30.918Z,70.40
2022-12-17T16:27:04.512Z,70.31
2022-12-17T16:29:35.016Z,70.43
2022-12-17T16:32:05.574Z,70.57
2022-12-17T16:34:35.788Z,70.45
2022-12-17T16:37:07.007Z,70.55
2022-12-17T16:39:37.230Z,70.14
2022-12-17T16:42:07.642Z,70.90
2022-12-17T16:44:38.082Z,70.80
2022-12-17T16:47:08.437Z,71.20
2022-12-17T16:49:38.597Z,70.93
2022-12-17T16:52:08.748Z,71.06
2022-12-17T16:54:38.972Z,71.01
2022-12-17T16:57:09.138Z,71.00
2022-12-17T16:59:39.294Z,70.96
2022-12-17T17:02:14.374Z,71.00
2022-12-17T17:04:44.699Z,71.02
2022-12-17T17:07:14.885Z,71.27
2022-12-17T17:09:45.698Z,71.01
2022-12-17T17:12:18.815Z,71.17
2022-12-17T17:14:52.020Z,70.65
2022-12-17T17:17:55.661Z,70.76
2022-12-17T17:20:12.952Z,70.72
2022-12-17T17:22:43.189Z,70.65
2022-12-17T17:25:13.401Z,70.96
2022-12-17T17:27:43.619Z,71.18
2022-12-17T17:30:14.241Z,71.39
2022-12-17T17:32:44.952Z,71.08
2022-12-17T17:35:15.876Z,70.97
2022-12-17T17:37:45.953Z,71.49
2022-12-17T17:40:16.284Z,71.41
2022-12-17T17:42:51.525Z,71.23
2022-12-17T17:45:23.151Z,71.64
2022-12-17T17:47:54.000Z,71.41
2022-12-17T17:50:24.201Z,71.40
2022-12-17T17:52:54.438Z,71.85
2022-12-17T17:55:24.618Z,71.16
2022-12-17T17:57:57.966Z,71.34
2022-12-17T18:00:28.393Z,70.83
2022-12-17T18:02:58.760Z,71.40
2022-12-17T18:05:29.072Z,71.24
2022-12-17T18:07:59.214Z,71.69
2022-12-17T18:10:29.647Z,71.61
2022-12-17T18:13:18.570Z,71.14
2022-12-17T18:15:49.119Z,71.41
2022-12-17T18:18:19.765Z,71.79
2022-12-17T18:20:50.145Z,71.45
2022-12-17T18:23:20.378Z,71.43
2022-12-17T18:25:50.733Z,71.72
2022-12-17T18:28:21.051Z,71.97
2022-12-17T18:30:51.403Z,71.70
2022-12-17T18:33:21.806Z,71.82
2022-12-17T18:35:52.120Z,71.79
2022-12-17T18:38:22.491Z,72.11
2022-12-17T18:40:53.985Z,71.23
2022-12-17T18:43:24.183Z,71.66
2022-12-17T18:45:54.668Z,71.78
2022-12-17T18:48:25.179Z,71.81
2022-12-17T18:51:05.651Z,72.30
2022-12-17T18:53:36.100Z,71.58
2022-12-17T18:56:09.438Z,72.29
2022-12-17T18:58:40.248Z,72.31
2022-12-17T19:01:33.456Z,72.54
2022-12-17T19:04:07.558Z,71.74
2022-12-17T19:06:39.785Z,72.23
2022-12-17T19:09:37.270Z,73.09
2022-12-17T19:12:09.897Z,72.12
2022-12-17T19:14:40.297Z,71.96
2022-12-17T19:17:10.672Z,71.96
2022-12-17T19:19:41.175Z,71.78
2022-12-17T19:22:11.426Z,71.42
2022-12-17T19:24:41.939Z,71.62
2022-12-17T19:27:12.363Z,71.14
2022-12-17T19:29:47.637Z,71.16
2022-12-17T19:32:19.478Z,71.15
2022-12-17T19:34:49.664Z,71.46
2022-12-17T19:37:19.984Z,70.90
2022-12-17T19:39:50.121Z,71.31
2022-12-17T19:42:30.742Z,71.41
2022-12-17T19:45:07.305Z,71.31
2022-12-17T19:47:37.539Z,71.72
2022-12-17T19:50:07.882Z,71.23
2022-12-17T19:52:38.033Z,71.64
2022-12-17T19:55:08.635Z,71.88
2022-12-17T19:57:39.447Z,71.60
2022-12-17T20:00:10.684Z,71.74
2022-12-17T20:02:40.986Z,72.16
2022-12-17T20:05:11.325Z,71.95
2022-12-17T20:07:41.459Z,72.05
2022-12-17T20:10:11.720Z,72.42
2022-12-17T20:12:41.862Z,71.73
2022-12-17T20:15:12.145Z,71.72
2022-12-17T20:17:42.272Z,71.81
2022-12-17T20:20:12.571Z,72.28
2022-12-17T20:22:42.678Z,71.59
2022-12-17T20:25:12.892Z,71.82
2022-12-17T20:27:46.562Z,71.60
2022-12-17T20:30:16.766Z,71.45
2022-12-17T20:32:46.908Z,71.08
2022-12-17T20:35:17.489Z,70.76
2022-12-17T20:37:47.655Z,70.93
2022-12-17T20:40:17.770Z,70.37
2022-12-17T20:42:48.020Z,70.55
2022-12-17T20:45:18.288Z,70.38
2022-12-17T20:47:48.459Z,70.81
2022-12-17T20:50:19.134Z,70.69
2022-12-17T20:52:49.342Z,71.01
2022-12-17T20:55:19.678Z,71.08
2022-12-17T20:57:49.857Z,70.96
2022-12-17T21:00:20.190Z,70.41
2022-12-17T21:02:50.664Z,70.88
2022-12-17T21:05:21.085Z,70.63
2022-12-17T21:07:52.902Z,71.32
2022-12-17T21:10:23.738Z,71.19
2022-12-17T21:13:12.212Z,70.53
2022-12-17T21:15:49.715Z,70.32
2022-12-17T21:18:19.917Z,70.60
2022-12-17T21:21:14.239Z,70.20
2022-12-17T21:23:47.155Z,70.06
2022-12-17T21:26:24.023Z,70.49
2022-12-17T21:28:56.736Z,70.32
2022-12-17T21:31:32.886Z,70.59
2022-12-17T21:34:05.698Z,70.32
2022-12-17T21:36:36.711Z,70.11
2022-12-17T21:39:09.940Z,70.11
2022-12-17T21:41:44.462Z,70.57
2022-12-17T21:44:15.443Z,70.00
2022-12-17T21:46:50.065Z,70.19
2022-12-17T21:49:20.821Z,70.35
2022-12-17T21:51:51.302Z,70.67
2022-12-17T21:54:21.508Z,70.67
2022-12-17T21:56:51.787Z,70.50
2022-12-17T21:59:22.022Z,70.40
2022-12-17T22:01:53.411Z,70.69
2022-12-17T22:04:24.826Z,70.80
2022-12-17T22:06:57.699Z,70.72
2022-12-17T22:09:39.475Z,70.64
2022-12-17T22:12:39.974Z,70.50
2022-12-17T22:15:11.319Z,70.42
2022-12-17T22:17:43.080Z,70.28
2022-12-17T22:20:13.521Z,70.59
2022-12-17T22:22:45.010Z,70.31
2022-12-17T22:25:15.392Z,70.39
2022-12-17T22:27:45.880Z,70.08
2022-12-17T22:30:36.578Z,70.50
2022-12-17T22:33:12.347Z,70.52
2022-12-17T22:37:47.597Z,69.98
2022-12-17T22:43:42.589Z,70.51
2022-12-17T22:44:33.896Z,70.87
2022-12-17T22:44:53.383Z,70.64
2022-12-17T22:47:24.297Z,70.85
2022-12-17T22:49:54.518Z,70.53
2022-12-17T22:52:25.436Z,70.54
2022-12-17T22:54:56.071Z,70.36
2022-12-17T22:57:35.130Z,70.40
2022-12-17T23:00:14.483Z,70.78
2022-12-17T23:02:44.802Z,70.34
2022-12-17T23:05:14.996Z,70.24
2022-12-17T23:07:45.300Z,70.25
2022-12-17T23:10:16.187Z,69.76
2022-12-17T23:12:52.744Z,70.03
2022-12-17T23:15:22.872Z,69.79
2022-12-17T23:17:54.725Z,70.45
2022-12-17T23:20:27.034Z,69.96
2022-12-17T23:22:57.370Z,69.71
2022-12-17T23:25:29.407Z,69.64
2022-12-17T23:27:59.882Z,69.83
2022-12-17T23:30:30.024Z,69.47
2022-12-17T23:33:00.301Z,69.76
2022-12-17T23:35:30.987Z,69.60
2022-12-17T23:38:01.197Z,69.61
2022-12-17T23:40:31.579Z,69.91
2022-12-17T23:43:01.804Z,69.55
2022-12-17T23:45:31.986Z,69.87
2022-12-17T23:48:03.838Z,70.06
2022-12-17T23:50:33.985Z,69.76
2022-12-17T23:53:04.155Z,69.40
2022-12-17T23:55:34.383Z,69.59
2022-12-17T23:58:04.612Z,69.47
